Time;durP1;ratioP1;P1;durP2;ratioP2;P2;SDS_P1;SDS_P2;PMS_P1;PMS_P2;Temp;Humidity;BMP_temperature;BMP_pressure;BME280_temperature;BME280_humidity;BME280_pressure;Samples;Min_cycle;Max_cycle;Signal;HPM_P1;HPM_P2
2021/12/08 00:01:26;;;;;;;34.43;21.00;;;1.50;99.90;;;;;;5096949;28;20180;-91
2021/12/08 00:03:52;;;;;;;29.40;15.10;;;1.50;99.90;;;;;;5096351;28;20183;-91
2021/12/08 00:06:18;;;;;;;33.67;18.20;;;1.50;99.90;;;;;;5096060;28;20942;-93
2021/12/08 00:08:59;;;;;;;23.07;16.03;;;1.50;99.90;;;;;;5096727;28;20830;-94
2021/12/08 00:14:08;;;;;;;34.73;19.37;;;1.50;99.90;;;;;;5097579;28;20944;-91
2021/12/08 00:16:34;;;;;;;33.33;16.20;;;1.50;99.90;;;;;;5097907;28;20427;-92
2021/12/08 00:19:00;;;;;;;33.50;17.20;;;1.50;99.90;;;;;;5097477;28;20175;-90
2021/12/08 00:21:27;;;;;;;32.23;17.63;;;1.50;99.90;;;;;;5096257;28;20222;-89
2021/12/08 00:23:53;;;;;;;27.33;16.70;;;1.50;99.90;;;;;;5096614;28;20166;-92
2021/12/08 00:26:18;;;;;;;26.10;14.33;;;1.60;99.90;;;;;;5095369;28;20410;-87
2021/12/08 00:28:44;;;;;;;28.37;16.77;;;1.50;99.90;;;;;;5096204;28;20648;-90
2021/12/08 00:31:10;;;;;;;25.83;15.03;;;1.50;99.90;;;;;;5096048;28;20174;-88
2021/12/08 00:33:36;;;;;;;41.17;18.83;;;1.50;99.90;;;;;;5096181;28;20461;-92
2021/12/08 00:36:05;;;;;;;33.67;18.80;;;1.50;99.90;;;;;;5095822;28;20406;-92
2021/12/08 00:38:31;;;;;;;21.37;11.27;;;1.40;99.90;;;;;;5095892;28;20465;-85
2021/12/08 00:40:57;;;;;;;25.07;15.50;;;1.50;99.90;;;;;;5095515;28;20418;-82
2021/12/08 00:43:23;;;;;;;33.17;18.00;;;1.50;99.90;;;;;;5095909;28;20530;-84
2021/12/08 00:45:50;;;;;;;33.90;18.60;;;1.50;99.90;;;;;;5096213;28;20492;-84
2021/12/08 00:48:16;;;;;;;33.50;17.57;;;1.50;99.90;;;;;;5096237;28;20462;-84
2021/12/08 00:50:42;;;;;;;30.87;17.40;;;1.50;99.90;;;;;;5095651;28;20410;-87
2021/12/08 00:53:09;;;;;;;30.13;16.80;;;1.50;99.90;;;;;;5095757;28;20446;-86
2021/12/08 00:55:36;;;;;;;29.77;18.60;;;1.50;99.90;;;;;;5095695;28;20402;-90
2021/12/08 00:58:02;;;;;;;30.37;16.70;;;1.60;99.90;;;;;;5096016;28;20423;-92
2021/12/08 01:00:30;;;;;;;28.50;15.53;;;1.60;99.90;;;;;;5095641;28;20860;-88
2021/12/08 01:02:57;;;;;;;30.13;17.43;;;1.60;99.90;;;;;;5095635;28;20509;-90
2021/12/08 01:05:25;;;;;;;24.47;14.23;;;;;;;;;;5095291;28;20410;-92
2021/12/08 01:07:51;;;;;;;29.03;16.90;;;1.60;99.90;;;;;;5095290;28;20466;-91
2021/12/08 01:10:19;;;;;;;17.70;11.17;;;;;;;;;;5095450;28;20451;-89
2021/12/08 01:12:45;;;;;;;26.40;15.57;;;1.60;99.90;;;;;;5095684;28;21071;-92
2021/12/08 01:15:10;;;;;;;34.90;16.63;;;1.60;99.90;;;;;;5094346;28;20450;-89
2021/12/08 01:17:38;;;;;;;31.07;18.13;;;1.60;99.90;;;;;;5095363;28;20530;-87
2021/12/08 01:20:07;;;;;;;25.80;16.60;;;1.60;99.90;;;;;;5095404;28;20505;-88
2021/12/08 01:22:32;;;;;;;21.93;14.97;;;1.70;99.90;;;;;;5095552;28;20426;-89
2021/12/08 01:24:58;;;;;;;24.00;14.87;;;1.60;99.90;;;;;;5095351;28;20534;-91
2021/12/08 01:27:23;;;;;;;26.60;13.67;;;1.60;99.90;;;;;;5095183;28;20209;-91
2021/12/08 01:29:56;;;;;;;32.53;17.80;;;1.70;99.90;;;;;;5095242;28;20213;-90
2021/12/08 01:32:22;;;;;;;30.57;17.47;;;1.60;99.90;;;;;;5095921;28;20195;-92
2021/12/08 01:34:48;;;;;;;25.70;13.87;;;1.70;99.90;;;;;;5095201;28;20405;-91
2021/12/08 01:37:13;;;;;;;28.73;15.03;;;1.60;99.90;;;;;;5095153;28;20509;-91
2021/12/08 01:39:39;;;;;;;21.87;13.17;;;1.50;99.90;;;;;;5095246;28;20219;-90
2021/12/08 01:42:06;;;;;;;36.70;17.83;;;1.60;99.90;;;;;;5095291;28;20183;-91
2021/12/08 01:47:17;;;;;;;28.27;13.87;;;;;;;;;;5095210;28;20467;-91
2021/12/08 01:49:42;;;;;;;24.53;13.20;;;1.70;99.90;;;;;;5093598;28;20906;-87
2021/12/08 01:52:08;;;;;;;31.90;16.60;;;1.60;99.90;;;;;;5095206;28;20421;-93
2021/12/08 01:54:33;;;;;;;27.77;18.07;;;1.80;99.90;;;;;;5093817;28;20175;-90
2021/12/08 01:57:00;;;;;;;23.97;13.40;;;;;;;;;;5094910;28;20168;-88
2021/12/08 01:59:26;;;;;;;22.60;13.77;;;1.80;99.90;;;;;;5095052;28;20168;-91
2021/12/08 02:01:51;;;;;;;27.47;15.40;;;1.90;99.90;;;;;;5093732;28;20465;-89
2021/12/08 02:04:17;;;;;;;31.30;16.23;;;1.90;99.90;;;;;;5094922;28;20410;-90
2021/12/08 02:06:46;;;;;;;23.53;12.13;;;1.90;99.90;;;;;;5094365;28;20208;-89
2021/12/08 02:09:14;;;;;;;31.87;16.00;;;1.90;99.90;;;;;;5093471;28;20418;-91
2021/12/08 02:11:45;;;;;;;28.00;13.43;;;1.90;99.90;;;;;;5093683;28;20407;-89
2021/12/08 02:14:11;;;;;;;27.50;15.83;;;1.80;99.90;;;;;;5093774;28;20921;-91
2021/12/08 02:16:37;;;;;;;33.13;16.40;;;1.80;99.90;;;;;;5094198;28;20413;-91
2021/12/08 02:19:04;;;;;;;29.77;14.87;;;2.00;99.90;;;;;;5093247;28;20422;-90
2021/12/08 02:21:31;;;;;;;25.10;12.67;;;2.00;99.90;;;;;;5094425;28;20416;-87
2021/12/08 02:24:02;;;;;;;24.50;13.23;;;2.00;99.90;;;;;;5094243;28;20561;-93
2021/12/08 02:26:29;;;;;;;26.30;15.00;;;2.00;99.90;;;;;;5096383;28;20421;-93
2021/12/08 02:28:56;;;;;;;24.83;14.47;;;2.00;99.90;;;;;;5101797;28;20438;-89
2021/12/08 02:31:33;;;;;;;23.10;14.50;;;;;;;;;;5100285;28;20891;-91
2021/12/08 02:50:10;;;;;;;19.67;11.83;;;1.90;99.90;;;;;;5096542;28;20418;-84
2021/12/08 02:52:36;;;;;;;29.30;14.27;;;2.00;99.90;;;;;;5097214;28;20504;-93
2021/12/08 02:55:07;;;;;;;25.70;15.43;;;2.00;99.90;;;;;;5098234;28;20410;-84
2021/12/08 02:57:33;;;;;;;27.63;12.93;;;1.90;99.90;;;;;;5098160;28;20613;-91
2021/12/08 02:59:58;;;;;;;25.20;12.43;;;2.00;99.90;;;;;;5098157;28;20407;-85
2021/12/08 03:02:24;;;;;;;27.13;15.70;;;2.00;99.90;;;;;;5097914;28;20628;-84
2021/12/08 03:04:50;;;;;;;17.60;11.57;;;2.00;99.90;;;;;;5097510;28;20175;-91
2021/12/08 03:07:16;;;;;;;27.93;13.40;;;1.90;99.90;;;;;;5097703;28;20200;-86
2021/12/08 03:09:42;;;;;;;19.60;12.77;;;1.80;99.90;;;;;;5097797;28;20255;-90
2021/12/08 03:12:08;;;;;;;19.00;10.90;;;1.90;99.90;;;;;;5096517;28;20440;-89
2021/12/08 03:14:34;;;;;;;27.00;13.33;;;1.90;99.90;;;;;;5097637;28;20437;-90
2021/12/08 03:17:02;;;;;;;18.43;11.00;;;;;;;;;;5097988;28;20430;-92
2021/12/08 03:19:29;;;;;;;22.33;12.07;;;2.00;99.90;;;;;;5097617;28;20403;-89
2021/12/08 03:21:56;;;;;;;23.80;13.03;;;2.00;99.90;;;;;;5097681;28;20418;-90
2021/12/08 03:24:35;;;;;;;18.60;11.87;;;2.00;99.90;;;;;;5097838;28;20430;-90
2021/12/08 03:29:38;;;;;;;18.30;11.70;;;2.00;99.90;;;;;;5097831;28;20414;-90
2021/12/08 03:32:08;;;;;;;30.80;14.80;;;2.10;99.90;;;;;;5097442;28;20444;-89
2021/12/08 03:34:38;;;;;;;15.67;10.90;;;2.10;99.90;;;;;;5096212;28;20421;-91
2021/12/08 03:37:09;;;;;;;15.40;9.40;;;2.10;99.90;;;;;;5097421;28;20394;-90
2021/12/08 03:39:35;;;;;;;24.67;11.73;;;2.10;99.90;;;;;;5097095;28;20472;-89
2021/12/08 03:42:02;;;;;;;21.37;12.57;;;2.10;99.90;;;;;;5097504;28;20418;-90
2021/12/08 03:44:28;;;;;;;18.93;8.27;;;;;;;;;;5097299;28;20955;-90
2021/12/08 03:46:59;;;;;;;13.37;8.53;;;2.10;99.90;;;;;;5096054;28;20463;-90
2021/12/08 03:49:25;;;;;;;19.43;11.37;;;2.10;99.90;;;;;;5095741;28;20437;-89
2021/12/08 03:52:00;;;;;;;21.97;11.87;;;2.20;99.90;;;;;;5096080;28;20437;-92
2021/12/08 03:54:26;;;;;;;11.40;7.80;;;;;;;;;;5097352;28;20271;-90
2021/12/08 03:56:52;;;;;;;17.97;10.63;;;2.20;99.90;;;;;;5098007;28;20438;-88
2021/12/08 03:59:17;;;;;;;19.00;11.83;;;2.20;99.90;;;;;;5097074;28;20409;-91
2021/12/08 04:01:43;;;;;;;24.03;11.80;;;2.20;99.90;;;;;;5096898;28;20620;-91
2021/12/08 04:04:10;;;;;;;21.97;12.10;;;2.10;99.90;;;;;;5097189;28;20525;-93
2021/12/08 04:06:46;;;;;;;16.07;10.93;;;1.70;99.90;;;;;;5096663;28;20660;-93
2021/12/08 04:09:25;;;;;;;16.97;9.40;;;2.20;99.90;;;;;;5097067;28;20418;-92
2021/12/08 04:11:51;;;;;;;20.00;10.87;;;2.20;99.90;;;;;;5095307;28;20504;-93
2021/12/08 04:14:20;;;;;;;21.30;11.00;;;2.20;99.90;;;;;;5095166;28;20418;-94
2021/12/08 04:16:57;;;;;;;19.47;11.20;;;2.10;99.90;;;;;;5097055;28;20486;-91
2021/12/08 04:19:24;;;;;;;20.03;13.13;;;2.20;99.90;;;;;;5096566;28;20464;-87
2021/12/08 04:21:54;;;;;;;13.33;9.67;;;1.10;99.90;;;;;;5095158;28;20475;-89
2021/12/08 04:24:21;;;;;;;22.13;11.93;;;2.20;99.90;;;;;;5096257;28;20419;-91
2021/12/08 04:26:55;;;;;;;21.40;12.83;;;1.20;99.90;;;;;;5096070;28;20455;-91
2021/12/08 04:29:24;;;;;;;13.17;8.67;;;3.80;99.90;;;;;;5095768;28;20417;-85
2021/12/08 04:31:52;;;;;;;18.60;11.30;;;2.40;99.90;;;;;;5095771;28;20409;-92
2021/12/08 04:34:24;;;;;;;19.37;11.20;;;2.30;99.90;;;;;;5095917;28;20422;-92
2021/12/08 04:36:51;;;;;;;15.33;8.50;;;2.30;99.90;;;;;;5095980;28;20488;-92
2021/12/08 04:39:51;;;;;;;22.97;11.37;;;2.40;99.90;;;;;;5095975;28;20489;-93
2021/12/08 04:42:25;;;;;;;16.87;10.30;;;2.40;99.90;;;;;;5094567;28;20470;-86
2021/12/08 04:44:57;;;;;;;23.73;12.13;;;2.40;99.90;;;;;;5095420;28;20406;-93
2021/12/08 05:01:18;;;;;;;10.90;8.00;;;2.20;99.90;;;;;;5095068;28;20807;-90
2021/12/08 05:04:06;;;;;;;15.43;10.10;;;2.10;99.90;;;;;;5095356;28;20410;-84
2021/12/08 05:07:02;;;;;;;14.80;9.50;;;2.00;99.90;;;;;;5095360;28;20410;-91
2021/12/08 05:09:35;;;;;;;15.03;8.33;;;1.90;99.90;;;;;;5095153;28;20438;-87
2021/12/08 05:12:06;;;;;;;16.83;10.53;;;;;;;;;;5094253;28;20780;-84
2021/12/08 05:14:38;;;;;;;14.63;10.87;;;1.80;99.90;;;;;;5093357;28;20501;-83
2021/12/08 05:17:11;;;;;;;15.27;8.67;;;1.70;99.90;;;;;;5095058;28;20502;-88
2021/12/08 05:19:38;;;;;;;16.87;11.23;;;1.70;99.90;;;;;;5094984;28;20457;-88
2021/12/08 05:22:26;;;;;;;20.10;12.70;;;1.60;99.90;;;;;;5095220;28;20440;-89
2021/12/08 05:24:54;;;;;;;22.13;13.63;;;1.50;99.90;;;;;;5095334;28;20398;-91
2021/12/08 05:27:26;;;;;;;22.77;11.40;;;1.50;99.90;;;;;;5095388;28;20489;-86
2021/12/08 05:30:05;;;;;;;15.87;11.43;;;1.50;99.90;;;;;;5095369;28;20437;-88
2021/12/08 05:32:31;;;;;;;19.37;10.97;;;;;;;;;;5095138;28;20489;-88
2021/12/08 05:34:57;;;;;;;19.97;11.90;;;1.40;99.90;;;;;;5094634;28;20401;-89
2021/12/08 05:37:25;;;;;;;16.47;9.80;;;1.40;99.90;;;;;;5094527;28;20421;-90
2021/12/08 05:39:53;;;;;;;14.57;10.83;;;1.30;99.90;;;;;;5094610;28;20198;-89
2021/12/08 05:42:22;;;;;;;23.57;12.53;;;1.30;99.90;;;;;;5094558;28;20441;-89
2021/12/08 05:44:49;;;;;;;18.27;12.13;;;1.30;99.90;;;;;;5094891;28;20417;-89
2021/12/08 05:47:18;;;;;;;16.57;9.97;;;1.30;99.90;;;;;;5095186;28;20505;-92
2021/12/08 05:49:44;;;;;;;14.67;9.87;;;1.30;99.90;;;;;;5093306;28;20646;-84
2021/12/08 05:52:11;;;;;;;22.93;11.93;;;1.20;99.90;;;;;;5094617;28;20505;-88
2021/12/08 05:54:40;;;;;;;21.90;12.17;;;1.20;99.90;;;;;;5094624;28;20505;-93
2021/12/08 05:57:12;;;;;;;24.10;12.53;;;1.20;99.90;;;;;;5095019;28;20409;-88
2021/12/08 05:59:40;;;;;;;23.00;12.03;;;1.20;99.90;;;;;;5094588;28;20481;-89
2021/12/08 06:02:23;;;;;;;20.87;11.90;;;1.20;99.90;;;;;;5093842;28;20449;-91
2021/12/08 06:04:50;;;;;;;25.10;13.70;;;1.10;99.90;;;;;;5093960;28;20421;-89
2021/12/08 06:07:21;;;;;;;20.20;12.30;;;1.10;99.90;;;;;;5094125;28;20452;-86
2021/12/08 06:09:48;;;;;;;29.87;14.00;;;1.00;99.90;;;;;;5094421;28;20456;-88
2021/12/08 06:12:13;;;;;;;21.43;12.40;;;1.00;99.90;;;;;;5093337;28;20413;-90
2021/12/08 06:14:39;;;;;;;22.07;12.77;;;1.00;99.90;;;;;;5095086;28;20464;-90
2021/12/08 06:17:13;;;;;;;32.50;14.97;;;1.00;99.90;;;;;;5095155;28;20174;-90
2021/12/08 06:19:41;;;;;;;21.03;13.10;;;0.90;99.90;;;;;;5093160;28;20513;-89
2021/12/08 06:22:10;;;;;;;23.50;13.63;;;0.90;99.90;;;;;;5093948;28;20420;-88
2021/12/08 06:24:36;;;;;;;25.60;13.30;;;0.90;99.90;;;;;;5092111;28;20464;-87
2021/12/08 06:27:03;;;;;;;29.67;16.60;;;0.90;99.90;;;;;;5094046;28;20462;-90
2021/12/08 06:29:29;;;;;;;24.13;14.83;;;0.60;99.90;;;;;;5093796;28;20358;-90
2021/12/08 06:31:58;;;;;;;23.47;11.97;;;0.90;99.90;;;;;;5092730;28;20792;-90
2021/12/08 06:34:25;;;;;;;24.63;13.17;;;0.60;99.90;;;;;;5092437;28;20558;-90
2021/12/08 06:36:53;;;;;;;22.37;11.63;;;1.00;99.90;;;;;;5093710;28;20416;-87
2021/12/08 06:39:31;;;;;;;19.27;12.57;;;0.80;99.90;;;;;;5093972;28;20461;-88
2021/12/08 06:42:05;;;;;;;22.07;16.30;;;0.90;99.90;;;;;;5093861;28;20557;-89
2021/12/08 06:44:36;;;;;;;26.30;13.77;;;1.00;99.90;;;;;;5093898;28;20851;-90
2021/12/08 06:47:04;;;;;;;30.27;16.13;;;0.70;99.90;;;;;;5093629;28;20455;-90
2021/12/08 06:49:30;;;;;;;19.80;13.27;;;1.00;99.90;;;;;;5093352;28;20421;-87
2021/12/08 06:52:04;;;;;;;30.73;15.77;;;0.90;99.90;;;;;;5093544;28;20413;-88
2021/12/08 06:54:35;;;;;;;29.17;15.90;;;;;;;;;;5093604;28;20408;-87
2021/12/08 06:57:07;;;;;;;23.30;11.77;;;;;;;;;;5093724;28;20754;-90
2021/12/08 06:59:35;;;;;;;22.30;12.40;;;;;;;;;;5093767;28;20751;-89
2021/12/08 07:02:20;;;;;;;25.90;15.00;;;;;;;;;;5093807;28;20415;-87
2021/12/08 07:05:10;;;;;;;20.83;11.83;;;;;;;;;;5093437;28;20433;-86
2021/12/08 07:07:38;;;;;;;22.33;13.70;;;;;;;;;;5093755;28;20465;-86
2021/12/08 07:10:06;;;;;;;22.77;13.33;;;;;;;;;;5093767;28;20745;-87
2021/12/08 07:12:38;;;;;;;22.30;13.97;;;;;;;;;;5094034;28;20741;-88
2021/12/08 07:15:04;;;;;;;30.50;12.83;;;;;;;;;;5094048;28;20397;-87
2021/12/08 07:17:33;;;;;;;17.33;12.10;;;;;;;;;;5093610;28;20432;-88
2021/12/08 07:20:17;;;;;;;20.83;11.43;;;;;;;;;;5092290;28;20423;-88
2021/12/08 07:22:45;;;;;;;24.60;13.77;;;;;;;;;;5093733;28;20417;-87
2021/12/08 07:25:12;;;;;;;22.40;13.40;;;;;;;;;;5093461;28;20408;-87
2021/12/08 07:27:38;;;;;;;20.40;12.03;;;;;;;;;;5093551;28;20466;-87
2021/12/08 07:30:11;;;;;;;21.77;15.27;;;;;;;;;;5093620;28;20748;-88
2021/12/08 07:32:39;;;;;;;20.90;13.53;;;;;;;;;;5093575;28;20404;-90
2021/12/08 07:35:14;;;;;;;27.77;13.27;;;1.20;99.90;;;;;;5094157;28;20424;-89
2021/12/08 07:37:40;;;;;;;22.40;14.43;;;1.20;99.90;;;;;;5097553;28;20413;-90
2021/12/08 07:40:25;;;;;;;25.47;12.63;;;1.30;99.90;;;;;;5097272;28;20496;-89
2021/12/08 07:42:59;;;;;;;24.47;14.90;;;1.30;99.90;;;;;;5097704;28;20178;-90
2021/12/08 07:45:38;;;;;;;22.37;12.73;;;1.30;99.90;;;;;;5097335;28;20500;-89
2021/12/08 07:48:08;;;;;;;24.83;12.90;;;1.30;99.90;;;;;;5097044;28;20965;-89
2021/12/08 07:50:43;;;;;;;20.07;13.47;;;1.30;99.90;;;;;;5096693;28;20420;-89
2021/12/08 07:53:10;;;;;;;26.03;13.70;;;1.40;99.90;;;;;;5097111;28;20413;-89
2021/12/08 07:55:40;;;;;;;19.90;11.67;;;1.40;99.90;;;;;;5096917;28;20408;-90
2021/12/08 07:58:08;;;;;;;25.30;11.50;;;1.40;99.90;;;;;;5096925;28;20413;-87
2021/12/08 08:00:47;;;;;;;22.70;12.93;;;1.40;99.90;;;;;;5098205;28;20756;-88
2021/12/08 08:03:15;;;;;;;24.47;16.20;;;1.50;99.90;;;;;;5097275;28;20797;-90
2021/12/08 08:05:41;;;;;;;23.93;12.20;;;1.50;99.90;;;;;;5096430;28;20410;-89
2021/12/08 08:08:10;;;;;;;17.20;10.77;;;1.50;99.90;;;;;;5096608;28;20481;-88
2021/12/08 08:10:57;;;;;;;20.30;10.57;;;1.50;99.90;;;;;;5096612;28;20756;-90
2021/12/08 08:13:25;;;;;;;17.03;11.20;;;1.50;99.90;;;;;;5095990;28;20464;-91
2021/12/08 08:15:56;;;;;;;22.43;10.80;;;1.50;99.90;;;;;;5096838;28;20402;-88
2021/12/08 08:18:26;;;;;;;23.70;13.40;;;1.50;99.90;;;;;;5096829;28;20401;-90
2021/12/08 08:20:57;;;;;;;20.90;12.20;;;1.50;99.90;;;;;;5096341;28;20407;-91
2021/12/08 08:23:25;;;;;;;21.77;13.77;;;1.50;99.90;;;;;;5096667;28;20485;-90
2021/12/08 08:25:53;;;;;;;19.03;12.20;;;1.50;99.90;;;;;;5096933;28;20493;-92
2021/12/08 08:28:19;;;;;;;20.10;11.83;;;1.50;99.90;;;;;;5096997;28;20530;-92
2021/12/08 08:30:55;;;;;;;17.97;11.30;;;1.60;99.90;;;;;;5096742;28;20407;-90
2021/12/08 08:33:23;;;;;;;17.43;10.93;;;1.60;99.90;;;;;;5096623;28;20455;-89
2021/12/08 08:35:54;;;;;;;22.40;11.83;;;1.60;99.90;;;;;;5096035;28;20405;-90
2021/12/08 08:38:33;;;;;;;14.17;11.17;;;1.60;99.90;;;;;;5097036;28;20471;-90
2021/12/08 08:41:08;;;;;;;20.80;12.13;;;1.60;99.90;;;;;;5097067;28;20419;-89
2021/12/08 08:43:34;;;;;;;16.67;12.33;;;1.60;99.90;;;;;;5097955;28;20410;-90
2021/12/08 08:46:08;;;;;;;21.63;11.63;;;1.60;99.90;;;;;;5099112;28;20432;-89
2021/12/08 08:48:41;;;;;;;21.73;14.30;;;1.60;99.90;;;;;;5107385;28;20642;-88
2021/12/08 08:51:19;;;;;;;21.03;12.20;;;1.70;99.90;;;;;;5113427;28;20409;-88
2021/12/08 08:53:49;;;;;;;23.53;13.27;;;1.60;99.90;;;;;;5116234;28;20405;-88
2021/12/08 08:56:24;;;;;;;17.97;10.60;;;1.70;99.90;;;;;;5098425;28;20406;-89
2021/12/08 08:58:55;;;;;;;19.67;12.40;;;1.70;99.90;;;;;;5096169;28;20414;-91
2021/12/08 09:01:29;;;;;;;18.13;12.47;;;1.70;99.90;;;;;;5094850;28;20819;-93
2021/12/08 09:04:11;;;;;;;17.90;10.63;;;1.70;99.90;;;;;;5095770;28;20413;-90
2021/12/08 09:06:40;;;;;;;24.30;14.07;;;1.80;99.90;;;;;;5095796;28;20431;-90
2021/12/08 09:09:10;;;;;;;23.00;14.87;;;1.70;99.90;;;;;;5095409;28;20414;-87
2021/12/08 09:11:42;;;;;;;25.13;11.70;;;1.80;99.90;;;;;;5095495;28;20429;-87
2021/12/08 09:14:16;;;;;;;20.10;14.03;;;1.80;99.90;;;;;;5095399;28;20414;-88
2021/12/08 09:16:56;;;;;;;17.97;12.33;;;1.80;99.90;;;;;;5094709;28;20390;-87
2021/12/08 09:19:27;;;;;;;26.50;14.00;;;1.80;99.90;;;;;;5093937;28;20406;-87
2021/12/08 09:22:01;;;;;;;23.20;13.83;;;1.80;99.90;;;;;;5094602;28;20762;-87
2021/12/08 09:24:47;;;;;;;22.37;11.90;;;1.90;99.90;;;;;;5094397;28;20406;-87
2021/12/08 09:27:18;;;;;;;17.60;12.23;;;1.90;99.90;;;;;;5094132;28;20505;-87
2021/12/08 09:29:49;;;;;;;26.00;13.13;;;1.90;99.90;;;;;;5093912;28;20490;-87
2021/12/08 09:32:23;;;;;;;16.27;11.00;;;1.90;99.90;;;;;;5092499;28;20929;-87
2021/12/08 09:34:58;;;;;;;21.20;13.10;;;1.90;99.90;;;;;;5093658;28;20513;-87
2021/12/08 09:37:30;;;;;;;20.27;13.33;;;1.90;99.90;;;;;;5093755;28;20445;-87
2021/12/08 09:40:02;;;;;;;24.63;12.30;;;1.90;99.90;;;;;;5094126;28;20820;-87
2021/12/08 09:42:34;;;;;;;20.10;13.70;;;2.00;99.90;;;;;;5094338;28;20417;-87
2021/12/08 09:45:16;;;;;;;22.70;14.67;;;2.00;99.90;;;;;;5093410;28;20765;-89
2021/12/08 09:47:42;;;;;;;19.00;10.93;;;2.00;99.90;;;;;;5094999;28;20484;-90
2021/12/08 09:50:12;;;;;;;21.07;12.27;;;2.00;99.90;;;;;;5092924;28;20918;-90
2021/12/08 09:52:40;;;;;;;18.70;11.80;;;2.10;99.90;;;;;;5094346;28;20418;-89
2021/12/08 09:55:08;;;;;;;18.20;11.10;;;2.10;99.90;;;;;;5093137;28;20419;-89
2021/12/08 09:57:34;;;;;;;19.00;12.23;;;2.10;99.90;;;;;;5094511;28;20449;-89
2021/12/08 10:00:00;;;;;;;23.70;13.10;;;2.10;99.90;;;;;;5093129;28;20418;-89
2021/12/08 10:02:34;;;;;;;19.43;11.90;;;2.20;99.90;;;;;;5094444;28;20235;-88
2021/12/08 10:05:12;;;;;;;18.97;11.50;;;2.20;99.90;;;;;;5094380;28;20492;-89
2021/12/08 10:07:39;;;;;;;13.37;8.57;;;2.20;99.90;;;;;;5094757;28;20464;-89
2021/12/08 10:10:09;;;;;;;20.40;9.70;;;2.20;99.90;;;;;;5093147;28;20422;-89
2021/12/08 10:12:37;;;;;;;18.83;9.30;;;2.30;99.90;;;;;;5094359;28;20428;-90
2021/12/08 10:15:06;;;;;;;18.47;11.37;;;2.30;99.90;;;;;;5093558;28;20467;-90
2021/12/08 10:17:33;;;;;;;18.70;11.30;;;2.30;99.90;;;;;;5094122;28;20985;-90
2021/12/08 10:20:17;;;;;;;15.70;11.47;;;2.30;99.90;;;;;;5093994;28;20434;-89
2021/12/08 10:22:48;;;;;;;17.83;12.07;;;2.30;99.90;;;;;;5093785;28;20416;-86
2021/12/08 10:25:20;;;;;;;20.53;10.13;;;2.30;99.90;;;;;;5093980;28;20409;-90
2021/12/08 10:28:08;;;;;;;20.00;12.67;;;2.30;99.90;;;;;;5092605;28;20469;-90
2021/12/08 10:30:47;;;;;;;15.00;8.70;;;2.30;99.90;;;;;;5079128;28;20410;-87
2021/12/08 10:33:47;;;;;;;22.53;12.53;;;2.30;99.90;;;;;;5087883;28;20413;-89
2021/12/08 10:36:47;;;;;;;15.77;9.37;;;2.30;99.90;;;;;;5092924;28;20402;-90
2021/12/08 10:39:36;;;;;;;22.93;12.40;;;2.40;99.90;;;;;;5089715;28;20546;-87
2021/12/08 10:42:29;;;;;;;18.67;10.53;;;2.50;99.90;;;;;;5089636;28;20434;-87
2021/12/08 10:45:10;;;;;;;14.80;10.70;;;2.50;99.90;;;;;;5072746;28;20493;-85
2021/12/08 10:47:43;;;;;;;18.77;11.30;;;2.50;99.90;;;;;;5072317;28;20477;-86
2021/12/08 10:55:54;;;;;;;19.47;11.37;;;2.60;99.90;;;;;;5094287;28;20459;-86
2021/12/08 10:58:23;;;;;;;17.30;10.93;;;2.60;99.90;;;;;;5094216;28;20410;-89
2021/12/08 11:00:50;;;;;;;13.40;7.60;;;2.60;99.90;;;;;;5093652;28;20414;-90
2021/12/08 11:03:16;;;;;;;18.57;10.77;;;2.60;99.90;;;;;;5094453;28;20917;-92
2021/12/08 11:05:45;;;;;;;12.53;8.03;;;2.60;99.90;;;;;;5093362;28;20428;-91
2021/12/08 11:08:19;;;;;;;13.93;8.80;;;2.70;99.90;;;;;;5092224;28;20759;-89
2021/12/08 11:11:05;;;;;;;12.87;8.17;;;2.70;99.90;;;;;;5096319;28;20801;-91
2021/12/08 11:13:40;;;;;;;21.30;14.47;;;2.70;99.90;;;;;;5097296;28;20435;-90
2021/12/08 11:16:14;;;;;;;16.00;9.60;;;2.70;99.90;;;;;;5097696;28;20508;-91
2021/12/08 11:18:42;;;;;;;20.73;12.13;;;2.70;99.90;;;;;;5097434;28;20410;-93
2021/12/08 11:21:31;;;;;;;11.37;8.50;;;2.80;99.90;;;;;;5096862;28;20749;-93
2021/12/08 11:23:59;;;;;;;16.50;11.10;;;2.70;99.90;;;;;;5096800;28;20502;-92
2021/12/08 11:26:37;;;;;;;19.40;10.80;;;2.80;99.90;;;;;;5096475;28;20414;-92
2021/12/08 11:29:13;;;;;;;14.00;9.03;;;2.80;99.90;;;;;;5098934;28;20491;-93
2021/12/08 11:31:46;;;;;;;16.47;9.93;;;2.70;99.90;;;;;;5095865;28;20506;-88
2021/12/08 11:34:16;;;;;;;13.10;8.03;;;2.70;99.90;;;;;;5083387;28;20513;-88
2021/12/08 11:36:42;;;;;;;17.03;9.53;;;2.70;99.90;;;;;;5076841;28;20473;-93
2021/12/08 11:39:20;;;;;;;16.47;10.33;;;2.70;99.90;;;;;;5077226;28;20466;-90
2021/12/08 11:41:52;;;;;;;12.40;10.00;;;2.70;99.90;;;;;;5077201;28;20447;-91
2021/12/08 11:44:21;;;;;;;14.60;9.20;;;2.70;99.90;;;;;;5077041;28;20854;-92
2021/12/08 11:46:59;;;;;;;17.30;11.40;;;2.70;99.90;;;;;;5080401;28;20930;-91
2021/12/08 11:49:26;;;;;;;17.70;10.30;;;2.70;99.90;;;;;;5077650;28;20493;-92
2021/12/08 11:52:10;;;;;;;14.77;8.97;;;2.70;99.90;;;;;;5079720;28;20419;-93
2021/12/08 11:54:38;;;;;;;18.63;10.53;;;2.80;99.90;;;;;;5078653;28;20419;-90
2021/12/08 11:57:17;;;;;;;20.73;11.43;;;2.80;99.90;;;;;;5078366;28;20943;-92
2021/12/08 11:59:58;;;;;;;20.43;10.93;;;2.80;99.90;;;;;;5075875;28;20485;-90
2021/12/08 12:02:32;;;;;;;12.13;8.30;;;2.80;99.90;;;;;;5076483;28;20414;-90
2021/12/08 12:04:58;;;;;;;17.67;11.30;;;2.80;99.90;;;;;;5086837;28;20430;-87
2021/12/08 12:07:24;;;;;;;16.10;10.13;;;2.80;99.90;;;;;;5093317;28;20542;-87
2021/12/08 12:09:50;;;;;;;14.50;9.20;;;2.90;99.90;;;;;;5093992;28;20954;-91
2021/12/08 12:12:17;;;;;;;16.50;10.50;;;2.80;99.90;;;;;;5094831;28;20467;-87
2021/12/08 12:14:44;;;;;;;21.00;11.57;;;2.90;99.90;;;;;;5094304;28;20826;-88
2021/12/08 12:17:10;;;;;;;17.67;8.13;;;2.80;99.90;;;;;;5094837;28;20412;-93
2021/12/08 12:19:44;;;;;;;17.57;10.77;;;2.80;99.90;;;;;;5094210;28;20426;-88
2021/12/08 12:22:27;;;;;;;19.83;10.97;;;2.80;99.90;;;;;;5092838;28;20812;-87
2021/12/08 12:25:29;;;;;;;19.43;11.43;;;2.90;99.90;;;;;;5073380;28;20934;-88
2021/12/08 12:28:02;;;;;;;21.63;11.37;;;2.90;99.90;;;;;;5074702;28;21029;-87
2021/12/08 12:30:53;;;;;;;16.80;11.10;;;2.90;99.90;;;;;;5073416;28;20416;-87
2021/12/08 12:33:22;;;;;;;16.67;10.83;;;2.90;99.90;;;;;;5072795;28;20880;-87
2021/12/08 12:35:56;;;;;;;16.93;11.23;;;2.80;99.90;;;;;;5074605;28;20399;-87
2021/12/08 12:38:36;;;;;;;23.87;11.63;;;2.80;99.90;;;;;;5073146;28;20489;-86
2021/12/08 12:41:04;;;;;;;21.87;11.97;;;2.80;99.90;;;;;;5072962;28;20934;-87
2021/12/08 12:43:34;;;;;;;18.43;10.83;;;2.90;99.90;;;;;;5073660;28;20497;-88
2021/12/08 12:46:26;;;;;;;23.00;10.93;;;2.90;99.90;;;;;;5074256;28;20410;-87
2021/12/08 12:48:52;;;;;;;21.03;11.47;;;2.90;99.90;;;;;;5072167;28;20463;-87
2021/12/08 12:51:19;;;;;;;19.10;11.30;;;2.90;99.90;;;;;;5072894;28;20423;-88
2021/12/08 12:53:49;;;;;;;15.43;9.10;;;2.90;99.90;;;;;;5072658;28;20416;-86
2021/12/08 12:56:17;;;;;;;18.80;12.07;;;2.90;99.90;;;;;;5075020;28;20506;-86
2021/12/08 12:58:44;;;;;;;21.97;11.57;;;2.90;99.90;;;;;;5073427;28;20426;-86
2021/12/08 13:01:14;;;;;;;16.00;10.67;;;2.90;99.90;;;;;;5074156;28;20522;-89
2021/12/08 13:03:50;;;;;;;26.00;12.53;;;2.90;99.90;;;;;;5073966;28;20412;-86
2021/12/08 13:06:39;;;;;;;14.93;9.40;;;2.90;99.90;;;;;;5073145;28;20420;-88
2021/12/08 13:09:07;;;;;;;21.40;11.00;;;2.90;99.90;;;;;;5074004;28;20423;-91
2021/12/08 13:11:55;;;;;;;23.73;11.77;;;2.90;99.90;;;;;;5074539;28;20399;-90
2021/12/08 13:14:25;;;;;;;17.57;8.90;;;3.00;99.90;;;;;;5073711;28;20477;-90
2021/12/08 13:17:24;;;;;;;19.63;11.60;;;2.90;99.90;;;;;;5074915;28;20744;-89
2021/12/08 13:19:54;;;;;;;16.73;9.33;;;2.90;99.90;;;;;;5074268;28;20406;-89
2021/12/08 13:22:41;;;;;;;21.33;11.00;;;2.90;99.90;;;;;;5074437;28;20917;-92
2021/12/08 13:25:23;;;;;;;17.30;10.53;;;2.90;99.90;;;;;;5073820;28;20453;-90
2021/12/08 13:27:52;;;;;;;17.90;11.20;;;2.90;99.90;;;;;;5073420;28;20512;-91
2021/12/08 13:30:18;;;;;;;17.60;12.70;;;2.90;99.90;;;;;;5073339;28;20417;-90
2021/12/08 13:32:46;;;;;;;20.07;12.13;;;2.90;99.90;;;;;;5074158;28;20931;-91
2021/12/08 13:35:30;;;;;;;15.70;11.33;;;2.90;99.90;;;;;;5074439;28;20427;-89
2021/12/08 13:37:57;;;;;;;22.13;11.43;;;2.80;99.90;;;;;;5074102;28;20490;-87
2021/12/08 13:40:40;;;;;;;13.23;7.87;;;2.80;99.90;;;;;;5073781;28;20545;-80
2021/12/08 13:43:07;;;;;;;17.57;10.70;;;2.80;99.90;;;;;;5072748;28;20919;-80
2021/12/08 13:45:44;;;;;;;22.43;11.40;;;2.80;99.90;;;;;;5071903;28;20998;-80
2021/12/08 13:48:11;;;;;;;21.37;11.27;;;2.80;99.90;;;;;;5073040;28;20470;-81
2021/12/08 13:50:38;;;;;;;17.70;11.57;;;2.90;99.90;;;;;;5073409;28;20478;-79